Time;durP1;ratioP1;P1;durP2;ratioP2;P2;SDS_P1;SDS_P2;PMS_P1;PMS_P2;Temp;Humidity;BMP_temperature;BMP_pressure;BME280_temperature;BME280_humidity;BME280_pressure;Samples;Min_cycle;Max_cycle;Signal;HPM_P1;HPM_P2
2021/12/23 00:01:38;;;;;;;88.25;37.70;;;;;;;-2.33;81.21;101595.48;1642466;86;26673;-81
2021/12/23 00:04:04;;;;;;;85.10;37.70;;;;;;;-2.33;81.05;101584.50;1647183;86;25850;-81
2021/12/23 00:06:30;;;;;;;87.37;38.98;;;;;;;-2.32;81.11;101588.83;1660939;84;27516;-80
2021/12/23 00:08:59;;;;;;;81.02;37.17;;;;;;;-2.32;81.41;101578.79;1648110;86;25994;-81
2021/12/23 00:11:25;;;;;;;89.90;39.42;;;;;;;-2.32;81.41;101578.79;1659054;84;26042;-82
2021/12/23 00:14:01;;;;;;;92.10;39.20;;;;;;;-2.31;81.14;101573.48;1642658;86;25816;-80
2021/12/23 00:16:30;;;;;;;84.45;37.50;;;;;;;-2.32;81.13;101567.84;1652278;86;25956;-80
2021/12/23 00:18:56;;;;;;;89.17;37.60;;;;;;;-2.30;81.19;101565.98;1633303;86;28278;-81
2021/12/23 00:24:01;;;;;;;92.00;38.17;;;;;;;-2.30;81.12;101562.05;1643259;86;25944;-80
2021/12/23 00:26:29;;;;;;;85.20;35.52;;;;;;;-2.30;81.12;101562.05;1637487;86;26638;-80
2021/12/23 00:28:57;;;;;;;75.52;33.00;;;;;;;-2.30;80.79;101562.50;1643429;86;25813;-81
2021/12/23 00:31:25;;;;;;;93.22;40.30;;;;;;;-2.34;80.83;101556.58;1636252;86;27463;-81
2021/12/23 00:33:52;;;;;;;85.95;37.63;;;;;;;-2.37;80.82;101557.59;1644925;86;25743;-81
2021/12/23 00:36:18;;;;;;;65.47;31.00;;;;;;;-2.38;80.88;101560.30;1640651;86;25909;-81
2021/12/23 00:38:52;;;;;;;70.45;33.02;;;;;;;-2.41;80.70;101555.20;1617547;87;25815;-80
2021/12/23 00:41:16;;;;;;;70.05;31.45;;;;;;;-2.48;80.67;101551.23;1604587;87;25849;-81
2021/12/23 00:43:42;;;;;;;78.17;32.33;;;;;;;-2.50;80.66;101551.28;1647532;86;27602;-81
2021/12/23 00:46:08;;;;;;;81.67;36.23;;;;;;;-2.54;80.65;101544.52;1634799;86;25843;-81
2021/12/23 00:48:35;;;;;;;81.28;34.83;;;;;;;-2.55;80.77;101541.52;1643000;86;26484;-80
2021/12/23 00:51:03;;;;;;;80.55;34.40;;;;;;;-2.55;80.87;101537.59;1645922;86;25923;-82
2021/12/23 00:53:36;;;;;;;76.17;33.92;;;;;;;-2.51;80.85;101535.64;1649720;86;25313;-81
2021/12/23 00:55:58;;;;;;;75.20;32.70;;;;;;;-2.53;80.67;101529.63;1639685;86;27453;-80
2021/12/23 00:58:24;;;;;;;82.05;33.73;;;;;;;-2.59;80.63;101526.03;1646696;86;25734;-81
2021/12/23 01:00:51;;;;;;;70.85;34.58;;;;;;;-2.60;80.62;101526.94;1647165;85;25862;-80
2021/12/23 01:03:18;;;;;;;80.95;34.35;;;;;;;-2.62;80.60;101523.55;1633747;86;26044;-80
2021/12/23 01:05:45;;;;;;;74.40;32.78;;;;;;;-2.69;80.42;101519.09;1605204;87;25909;-81
2021/12/23 01:08:11;;;;;;;69.90;29.65;;;;;;;-2.69;80.42;101519.09;1657156;86;27402;-81
2021/12/23 01:10:37;;;;;;;70.95;31.02;;;;;;;-2.72;80.27;101510.55;1646887;86;26055;-80
2021/12/23 01:13:05;;;;;;;75.12;33.75;;;;;;;-2.76;80.27;101510.33;1648106;86;26547;-80
2021/12/23 01:18:10;;;;;;;80.37;33.10;;;;;;;-2.76;80.31;101505.08;1615796;87;25846;-81
2021/12/23 01:20:38;;;;;;;68.35;31.87;;;;;;;-2.79;80.16;101503.92;1652794;85;28271;-81
2021/12/23 01:23:09;;;;;;;76.72;34.13;;;;;;;-2.81;80.07;101500.53;1616601;87;25964;-80
2021/12/23 01:25:38;;;;;;;78.22;32.40;;;;;;;-2.84;80.05;101502.84;1640180;86;25799;-81
2021/12/23 01:28:07;;;;;;;72.55;30.85;;;;;;;-2.87;80.00;101503.02;1650575;86;26582;-81
2021/12/23 01:30:38;;;;;;;73.15;32.17;;;;;;;-2.88;79.99;101505.70;1644892;86;25997;-81
2021/12/23 01:33:08;;;;;;;70.83;31.87;;;;;;;-2.91;80.02;101500.18;1642359;86;27453;-80
2021/12/23 01:35:38;;;;;;;72.00;32.55;;;;;;;-2.94;79.89;101491.61;1652075;86;25741;-81
2021/12/23 01:38:06;;;;;;;73.25;32.83;;;;;;;-2.94;79.89;101491.61;1611184;87;25876;-81
2021/12/23 01:40:33;;;;;;;70.45;32.95;;;;;;;-2.96;79.88;101486.91;1656710;85;26013;-81
2021/12/23 01:43:00;;;;;;;74.87;34.95;;;;;;;-2.98;79.82;101494.01;1639611;86;25840;-80
2021/12/23 01:45:30;;;;;;;86.65;39.48;;;;;;;-3.01;79.82;101488.45;1641017;86;28475;-81
2021/12/23 01:47:57;;;;;;;70.85;30.57;;;;;;;-3.05;79.81;101472.51;1634983;86;25849;-81
2021/12/23 01:50:27;;;;;;;70.97;30.68;;;;;;;-3.01;79.77;101473.19;1646144;86;25779;-81
2021/12/23 01:52:56;;;;;;;71.65;31.05;;;;;;;-3.08;79.72;101467.90;1607295;87;26003;-80
2021/12/23 01:55:22;;;;;;;76.65;33.33;;;;;;;-3.08;79.72;101467.90;1644229;86;25352;-81
2021/12/23 01:57:50;;;;;;;73.30;31.15;;;;;;;-3.06;79.92;101460.34;1605017;87;27457;-81
2021/12/23 02:00:20;;;;;;;63.92;28.62;;;;;;;-3.06;79.92;101460.34;1637236;86;25710;-81
2021/12/23 02:02:46;;;;;;;70.47;31.82;;;;;;;-3.06;79.93;101457.73;1641240;86;25863;-81
2021/12/23 02:05:13;;;;;;;70.72;30.30;;;;;;;-3.05;80.04;101458.09;1633153;87;26245;-80
2021/12/23 02:07:39;;;;;;;73.33;31.52;;;;;;;-3.01;79.95;101457.00;1654504;86;26002;-81
2021/12/23 02:10:08;;;;;;;70.72;32.65;;;;;;;-3.01;79.97;101452.22;1604279;87;27478;-81
2021/12/23 02:12:35;;;;;;;67.72;30.08;;;;;;;-3.01;79.98;101444.36;1596035;89;26587;-81
2021/12/23 02:15:01;;;;;;;69.17;32.70;;;;;;;-3.01;79.88;101437.34;1618693;87;25356;-81
2021/12/23 02:17:27;;;;;;;76.12;33.60;;;;;;;-3.03;80.02;101419.55;1652584;86;26496;-80
2021/12/23 02:19:55;;;;;;;69.97;33.98;;;;;;;-3.03;80.02;101419.55;1639707;86;25789;-81
2021/12/23 02:22:21;;;;;;;75.62;33.53;;;;;;;-3.02;79.98;101415.16;1640757;86;27457;-81
2021/12/23 02:24:48;;;;;;;71.17;32.33;;;;;;;-3.02;79.90;101418.64;1631013;86;26243;-81
2021/12/23 02:27:14;;;;;;;72.50;31.70;;;;;;;-3.02;79.92;101417.33;1626507;86;25361;-80
2021/12/23 02:29:40;;;;;;;65.97;30.32;;;;;;;-3.01;79.84;101418.15;1637699;86;25859;-81
2021/12/23 02:32:07;;;;;;;63.52;28.38;;;;;;;-3.14;79.78;101401.77;1603704;87;25864;-80
2021/12/23 02:34:34;;;;;;;64.87;30.00;;;;;;;-3.06;79.70;101412.33;1599732;89;27550;-81
2021/12/23 02:37:00;;;;;;;63.83;29.35;;;;;;;-3.07;79.82;101414.55;1625709;86;26235;-81
2021/12/23 02:39:29;;;;;;;70.70;32.63;;;;;;;-3.07;79.87;101410.62;1626151;86;25820;-80
2021/12/23 02:41:56;;;;;;;62.13;29.23;;;;;;;-3.06;80.02;101411.02;1634034;87;26007;-81
2021/12/23 02:44:22;;;;;;;68.33;30.02;;;;;;;-3.04;79.84;101405.23;1648600;86;26557;-80
2021/12/23 02:46:49;;;;;;;68.10;30.55;;;;;;;-3.05;79.91;101406.99;1645798;86;27444;-81
2021/12/23 02:49:15;;;;;;;62.62;28.32;;;;;;;-3.05;79.87;101398.28;1641696;86;25310;-81
2021/12/23 02:51:42;;;;;;;71.85;31.12;;;;;;;-3.03;79.92;101388.11;1656515;86;25353;-81
2021/12/23 02:54:08;;;;;;;57.23;26.68;;;;;;;-3.01;80.00;101384.94;1647199;86;25822;-81
2021/12/23 02:56:35;;;;;;;64.75;29.37;;;;;;;-3.01;79.87;101382.77;1652965;85;25344;-81
2021/12/23 02:59:02;;;;;;;64.45;29.67;;;;;;;-3.01;79.99;101382.31;1636889;86;28373;-80
2021/12/23 03:01:28;;;;;;;66.00;30.70;;;;;;;-3.01;79.60;101378.84;1649616;86;26402;-81
2021/12/23 03:03:54;;;;;;;64.30;28.77;;;;;;;-3.01;79.60;101378.84;1647204;86;25944;-81
2021/12/23 03:06:22;;;;;;;73.47;31.10;;;;;;;-3.03;79.83;101375.00;1630048;86;25903;-80
2021/12/23 03:08:53;;;;;;;67.05;29.95;;;;;;;-3.02;79.86;101370.16;1643480;86;25726;-81
2021/12/23 03:11:23;;;;;;;57.55;26.95;;;;;;;-2.99;79.76;101366.04;1646324;86;28466;-81
2021/12/23 03:13:50;;;;;;;67.37;29.50;;;;;;;-2.99;79.76;101366.04;1642933;86;25921;-81
2021/12/23 03:16:24;;;;;;;74.47;28.62;;;;;;;-3.02;79.90;101364.91;1642170;86;26546;-80
2021/12/23 03:18:50;;;;;;;66.45;29.65;;;;;;;-3.01;79.88;101367.05;1645044;85;25882;-80
2021/12/23 03:21:16;;;;;;;68.78;30.75;;;;;;;-3.06;79.81;101359.46;1653592;86;26122;-81
2021/12/23 03:23:43;;;;;;;62.30;27.65;;;;;;;-3.06;79.90;101358.61;1649343;85;28016;-81
2021/12/23 03:26:10;;;;;;;65.65;30.32;;;;;;;-3.06;79.84;101355.98;1604693;87;26568;-80
2021/12/23 03:28:37;;;;;;;75.12;30.27;;;;;;;-3.06;79.90;101353.36;1651632;86;25964;-81
2021/12/23 03:31:03;;;;;;;66.47;29.40;;;;;;;-3.12;79.85;101346.66;1643802;86;25970;-80
2021/12/23 03:33:30;;;;;;;60.28;27.90;;;;;;;-3.09;79.81;101354.37;1631924;86;25766;-81
2021/12/23 03:35:56;;;;;;;70.65;31.57;;;;;;;-3.06;79.77;101353.36;1653876;86;28340;-81
2021/12/23 03:38:24;;;;;;;61.37;29.02;;;;;;;-3.06;79.73;101346.36;1636387;86;26158;-80
2021/12/23 03:40:51;;;;;;;59.60;28.77;;;;;;;-3.07;79.70;101345.95;1641064;86;25801;-81
2021/12/23 03:43:17;;;;;;;66.47;29.23;;;;;;;-3.08;79.59;101337.73;1644917;86;26632;-80
2021/12/23 03:45:47;;;;;;;64.97;27.85;;;;;;;-3.09;79.57;101336.48;1657650;86;25790;-81
2021/12/23 03:48:15;;;;;;;67.05;28.95;;;;;;;-3.08;79.92;101342.13;1646478;86;27487;-81
2021/12/23 03:50:43;;;;;;;72.08;30.52;;;;;;;-3.08;79.92;101342.13;1652884;86;25870;-80
2021/12/23 03:53:09;;;;;;;65.25;27.30;;;;;;;-3.08;79.56;101335.11;1655408;86;25515;-80
2021/12/23 03:55:36;;;;;;;59.93;28.47;;;;;;;-3.09;79.64;101332.55;1644356;86;25821;-81
2021/12/23 03:58:03;;;;;;;66.45;29.72;;;;;;;-3.13;79.55;101329.26;1603776;87;26043;-80
2021/12/23 04:00:30;;;;;;;64.75;28.87;;;;;;;-3.13;79.55;101317.47;1636519;86;27458;-81
2021/12/23 04:02:56;;;;;;;71.17;29.85;;;;;;;-3.14;79.60;101311.37;1605350;87;26339;-80
2021/12/23 04:05:23;;;;;;;66.12;30.62;;;;;;;-3.14;79.70;101310.06;1635547;84;25822;-81
2021/12/23 04:07:50;;;;;;;61.13;27.82;;;;;;;-3.10;79.73;101310.73;1643362;86;25991;-81
2021/12/23 04:10:21;;;;;;;66.62;30.60;;;;;;;-3.12;79.38;101299.03;1650501;85;26025;-80
2021/12/23 04:12:50;;;;;;;59.15;27.62;;;;;;;-3.11;79.67;101290.72;1656242;85;27455;-81
2021/12/23 04:15:16;;;;;;;61.92;28.17;;;;;;;-3.11;79.63;101286.79;1652727;86;25944;-81
2021/12/23 04:17:43;;;;;;;68.90;29.92;;;;;;;-3.12;79.58;101276.41;1641110;86;26055;-80
2021/12/23 04:20:23;;;;;;;65.47;29.60;;;;;;;-3.12;79.54;101279.39;1643311;86;25824;-80
2021/12/23 04:22:52;;;;;;;66.47;29.50;;;;;;;-3.12;79.63;101271.52;1645493;85;25752;-80
2021/12/23 04:25:22;;;;;;;64.90;27.90;;;;;;;-3.14;79.52;101279.08;1593798;87;27453;-81
2021/12/23 04:27:52;;;;;;;65.28;30.02;;;;;;;-3.16;79.60;101267.38;1638326;86;25759;-80
2021/12/23 04:30:20;;;;;;;68.50;28.55;;;;;;;-3.16;79.60;101267.38;1646320;86;25845;-80
2021/12/23 04:32:46;;;;;;;61.37;27.98;;;;;;;-3.15;79.36;101252.06;1648351;86;25903;-81
2021/12/23 04:35:13;;;;;;;61.28;29.52;;;;;;;-3.15;79.36;101252.06;1652821;86;25848;-81
2021/12/23 04:37:40;;;;;;;62.90;28.57;;;;;;;-3.15;79.50;101244.20;1646077;86;27626;-81
2021/12/23 04:40:10;;;;;;;70.03;29.72;;;;;;;-3.18;79.51;101239.57;1598966;87;25851;-80
2021/12/23 04:42:39;;;;;;;69.90;30.23;;;;;;;-3.14;79.62;101235.39;1644448;86;26021;-80
2021/12/23 04:45:07;;;;;;;61.50;29.75;;;;;;;-3.14;79.62;101220.98;1617495;87;26480;-81
2021/12/23 04:47:35;;;;;;;66.67;30.90;;;;;;;-3.14;79.62;101220.98;1656184;86;25873;-81
2021/12/23 04:50:02;;;;;;;70.08;30.65;;;;;;;-3.07;79.69;101219.33;1642557;86;27309;-81
2021/12/23 04:52:29;;;;;;;66.80;29.40;;;;;;;-3.05;79.62;101222.70;1643378;86;25393;-81
2021/12/23 04:54:55;;;;;;;70.55;30.92;;;;;;;-3.06;79.63;101221.88;1643329;86;25812;-80
2021/12/23 04:57:22;;;;;;;69.70;31.68;;;;;;;-3.03;79.80;101217.77;1657620;85;25825;-80
2021/12/23 04:59:48;;;;;;;64.25;29.30;;;;;;;-3.03;79.51;101207.28;1642316;86;26553;-81
2021/12/23 05:02:14;;;;;;;69.50;29.35;;;;;;;-3.03;79.51;101207.28;1646078;86;27516;-81
2021/12/23 05:04:40;;;;;;;70.15;30.25;;;;;;;-3.04;79.51;101203.45;1644675;86;25723;-80
2021/12/23 05:07:07;;;;;;;66.02;29.82;;;;;;;-3.07;79.51;101202.30;1630596;86;25506;-81
2021/12/23 05:09:33;;;;;;;68.97;30.88;;;;;;;-3.07;79.51;101202.30;1623379;86;28255;-80
2021/12/23 05:11:59;;;;;;;64.55;30.77;;;;;;;-3.12;79.54;101191.25;1634379;86;25926;-81
2021/12/23 05:14:26;;;;;;;70.67;30.90;;;;;;;-3.12;79.41;101195.17;1641361;86;28217;-81
2021/12/23 05:16:52;;;;;;;71.47;30.90;;;;;;;-3.15;79.48;101180.47;1643682;86;25801;-80
2021/12/23 05:19:18;;;;;;;67.62;29.00;;;;;;;-3.10;79.54;101183.66;1635801;85;25813;-81
2021/12/23 05:21:44;;;;;;;64.50;28.83;;;;;;;-3.10;79.48;101189.38;1615716;87;26556;-80
2021/12/23 05:24:10;;;;;;;62.60;30.60;;;;;;;-3.15;79.39;101183.09;1649420;85;26474;-81
2021/12/23 05:26:37;;;;;;;64.75;28.35;;;;;;;-3.16;79.41;101185.31;1632399;86;27445;-81
2021/12/23 05:29:03;;;;;;;66.62;32.15;;;;;;;-3.16;79.41;101177.45;1642594;86;25795;-81
2021/12/23 05:31:29;;;;;;;69.22;30.57;;;;;;;-3.14;79.48;101167.73;1645198;86;25770;-80
2021/12/23 05:33:55;;;;;;;68.85;32.50;;;;;;;-3.12;79.49;101171.11;1633595;86;25782;-81
2021/12/23 05:36:22;;;;;;;57.35;27.17;;;;;;;-3.13;79.39;101170.75;1631404;86;25341;-80
2021/12/23 05:38:48;;;;;;;66.30;29.10;;;;;;;-3.13;79.39;101170.75;1646421;86;28354;-81
2021/12/23 05:41:14;;;;;;;70.37;32.83;;;;;;;-3.17;79.43;101163.99;1638590;86;25799;-81
2021/12/23 05:43:40;;;;;;;64.77;31.73;;;;;;;-3.18;79.48;101155.73;1645736;86;25777;-80
2021/12/23 05:46:06;;;;;;;76.02;33.95;;;;;;;-3.15;79.44;101168.67;1641479;86;26519;-80
2021/12/23 05:48:33;;;;;;;76.05;33.70;;;;;;;-3.12;79.50;101158.50;1639392;86;25956;-81
2021/12/23 05:50:59;;;;;;;70.92;30.77;;;;;;;-3.12;79.52;101154.92;1645753;86;27523;-80
2021/12/23 05:53:25;;;;;;;75.85;33.08;;;;;;;-3.10;79.51;101157.94;1649084;85;25949;-80
2021/12/23 05:55:53;;;;;;;73.15;33.35;;;;;;;-3.09;79.46;101145.20;1643757;86;25905;-80
2021/12/23 05:58:19;;;;;;;75.65;32.48;;;;;;;-3.11;79.39;101147.92;1642966;86;26632;-80
2021/12/23 06:00:45;;;;;;;69.22;29.80;;;;;;;-3.19;79.32;101135.23;1639776;85;25837;-80
2021/12/23 06:03:11;;;;;;;68.35;30.88;;;;;;;-3.17;79.22;101137.79;1655166;86;28202;-80
2021/12/23 06:05:38;;;;;;;80.87;35.58;;;;;;;-3.17;79.22;101137.79;1658186;86;25872;-80
2021/12/23 06:08:04;;;;;;;75.85;33.42;;;;;;;-3.21;79.22;101129.23;1638745;86;25848;-80
2021/12/23 06:10:31;;;;;;;70.52;30.88;;;;;;;-3.24;79.08;101124.19;1645167;86;26080;-81
2021/12/23 06:12:57;;;;;;;79.27;33.08;;;;;;;-3.24;79.08;101124.19;1644356;86;25732;-81
2021/12/23 06:15:23;;;;;;;71.62;32.75;;;;;;;-3.27;79.14;101123.50;1652369;86;28061;-81
2021/12/23 06:17:49;;;;;;;82.22;36.00;;;;;;;-3.28;79.15;101123.14;1654600;86;25958;-81
2021/12/23 06:20:15;;;;;;;77.97;35.15;;;;;;;-3.27;79.26;101119.11;1651575;86;25833;-81
2021/12/23 06:22:42;;;;;;;83.05;36.13;;;;;;;-3.26;79.19;101120.81;1632425;86;26547;-80
2021/12/23 06:25:11;;;;;;;72.85;34.33;;;;;;;-3.27;79.10;101121.73;1634682;86;25806;-80
2021/12/23 06:27:38;;;;;;;82.05;38.25;;;;;;;-3.29;79.18;101107.88;1661072;84;27440;-81
2021/12/23 06:30:18;;;;;;;76.12;34.65;;;;;;;-3.27;79.18;101109.95;1636530;86;26504;-80
2021/12/23 06:32:54;;;;;;;81.50;37.75;;;;;;;-3.25;79.17;101109.39;1657750;86;25889;-80
2021/12/23 06:35:25;;;;;;;75.37;35.28;;;;;;;-3.23;79.37;101105.40;1645056;86;26017;-81
2021/12/23 06:37:52;;;;;;;81.97;37.30;;;;;;;-3.23;79.37;101105.40;1616662;87;26071;-80
2021/12/23 06:40:19;;;;;;;79.72;36.15;;;;;;;-3.21;79.32;101107.46;1647081;86;28295;-80
2021/12/23 06:42:46;;;;;;;87.50;38.30;;;;;;;-3.21;79.29;101108.28;1649458;86;25812;-80
2021/12/23 06:45:14;;;;;;;83.00;37.50;;;;;;;-3.19;79.37;101107.73;1645833;86;25881;-80
2021/12/23 06:47:41;;;;;;;87.78;39.40;;;;;;;-3.17;79.27;101103.73;1655752;86;25879;-81
2021/12/23 06:50:09;;;;;;;82.53;40.92;;;;;;;-3.18;79.32;101102.03;1651016;86;25983;-80
2021/12/23 06:52:37;;;;;;;84.83;39.38;;;;;;;-3.16;79.38;101102.33;1645204;86;27437;-80
2021/12/23 06:55:06;;;;;;;84.67;37.53;;;;;;;-3.15;79.33;101104.48;1658228;86;25835;-79
2021/12/23 06:57:33;;;;;;;83.65;38.08;;;;;;;-3.14;79.42;101104.39;1639311;86;25918;-81
2021/12/23 06:59:59;;;;;;;88.22;39.08;;;;;;;-3.12;79.48;101099.55;1605681;88;25785;-80
2021/12/23 07:02:26;;;;;;;86.20;39.13;;;;;;;-3.10;79.50;101097.67;1577467;89;26179;-81
2021/12/23 07:04:52;;;;;;;82.67;39.20;;;;;;;-3.11;79.35;101091.59;1605512;87;27502;-81
2021/12/23 07:07:25;;;;;;;83.50;38.75;;;;;;;-3.11;79.40;101085.03;1661680;86;26524;-80
2021/12/23 07:09:46;;;;;;;80.42;37.95;;;;;;;-3.09;79.52;101083.17;1650698;86;25774;-80
2021/12/23 07:12:13;;;;;;;88.65;39.45;;;;;;;-3.08;79.50;101086.19;1648274;84;25767;-80
2021/12/23 07:14:39;;;;;;;84.60;38.67;;;;;;;-3.06;79.57;101073.84;1652629;85;25885;-80
2021/12/23 07:17:07;;;;;;;82.67;38.17;;;;;;;-3.03;79.55;101076.26;1645763;86;27686;-81
2021/12/23 07:19:35;;;;;;;81.00;37.93;;;;;;;-3.00;79.44;101074.78;1645713;86;26010;-80
2021/12/23 07:22:02;;;;;;;81.22;36.13;;;;;;;-3.01;79.36;101072.23;1655204;86;25833;-80
2021/12/23 07:24:28;;;;;;;90.25;41.18;;;;;;;-3.01;79.36;101072.23;1648804;86;25810;-80
2021/12/23 07:26:55;;;;;;;91.20;39.45;;;;;;;-3.00;79.60;101067.37;1653691;85;25938;-81
2021/12/23 07:29:21;;;;;;;85.17;39.42;;;;;;;-3.05;79.32;101055.00;1650549;86;27439;-80
2021/12/23 07:31:47;;;;;;;84.13;39.10;;;;;;;-3.05;79.32;101055.00;1652386;86;25875;-80
2021/12/23 07:34:14;;;;;;;85.42;39.53;;;;;;;-2.97;79.40;101063.28;1651697;85;25538;-80
2021/12/23 07:36:42;;;;;;;85.65;38.90;;;;;;;-2.97;79.32;101064.10;1654369;86;25801;-80
2021/12/23 07:39:09;;;;;;;79.55;37.45;;;;;;;-2.97;79.42;101060.66;1654138;86;25916;-80
2021/12/23 07:41:35;;;;;;;81.15;38.63;;;;;;;-2.96;79.44;101057.94;1649924;86;27456;-81
2021/12/23 07:44:05;;;;;;;84.15;38.13;;;;;;;-2.97;79.25;101052.31;1649594;85;25886;-81
2021/12/23 07:46:35;;;;;;;85.32;39.53;;;;;;;-2.97;79.40;101047.56;1648022;85;25401;-81
2021/12/23 07:49:03;;;;;;;89.20;38.98;;;;;;;-2.96;79.50;101048.77;1649368;85;25817;-80
2021/12/23 07:51:29;;;;;;;88.45;40.17;;;;;;;-2.88;79.24;101045.69;1653168;86;25788;-80
2021/12/23 07:53:56;;;;;;;85.70;38.50;;;;;;;-2.87;79.38;101033.81;1644015;85;27409;-81
2021/12/23 07:56:24;;;;;;;94.80;42.23;;;;;;;-2.87;79.38;101033.81;1652755;85;26216;-80
2021/12/23 07:58:52;;;;;;;95.38;43.63;;;;;;;-2.83;79.43;101031.84;1652894;86;25696;-80
2021/12/23 08:01:18;;;;;;;92.17;43.60;;;;;;;-2.81;79.41;101032.14;1646442;86;25790;-80
2021/12/23 08:03:45;;;;;;;102.17;42.55;;;;;;;-2.77;79.33;101020.98;1657417;86;25669;-80
2021/12/23 08:06:11;;;;;;;88.15;40.23;;;;;;;-2.75;79.42;101016.50;1640647;85;28214;-81
2021/12/23 08:08:38;;;;;;;89.60;37.70;;;;;;;-2.74;79.24;101015.58;1647098;85;25682;-81
2021/12/23 08:11:06;;;;;;;96.85;43.38;;;;;;;-2.74;79.19;101005.09;1608621;87;25832;-80
2021/12/23 08:13:33;;;;;;;79.82;37.93;;;;;;;-2.74;79.19;101005.09;1649983;86;25929;-80
2021/12/23 08:16:01;;;;;;;81.02;37.23;;;;;;;-2.70;79.32;101002.66;1646202;86;26002;-80
2021/12/23 08:18:29;;;;;;;89.35;38.63;;;;;;;-2.70;79.32;101002.66;1656136;86;27451;-80
2021/12/23 08:20:56;;;;;;;83.10;38.78;;;;;;;-2.60;79.59;101002.46;1646243;86;25684;-81
2021/12/23 08:23:24;;;;;;;85.75;38.55;;;;;;;-2.60;79.59;101002.46;1657167;85;25957;-80
2021/12/23 08:25:50;;;;;;;82.97;36.98;;;;;;;-2.59;79.39;100995.80;1648370;85;25782;-80
2021/12/23 08:28:17;;;;;;;88.25;37.60;;;;;;;-2.56;79.31;100994.78;1637117;86;25942;-80
2021/12/23 08:30:43;;;;;;;79.17;37.80;;;;;;;-2.54;79.36;100990.28;1644327;86;27447;-80
2021/12/23 08:33:11;;;;;;;86.53;39.58;;;;;;;-2.51;79.39;100987.02;1658429;85;25966;-81
2021/12/23 08:35:37;;;;;;;84.60;38.83;;;;;;;-2.45;79.49;100987.95;1638418;86;25835;-81
2021/12/23 08:38:05;;;;;;;87.22;39.80;;;;;;;-2.45;79.49;100987.95;1633371;86;26338;-81
2021/12/23 08:40:33;;;;;;;79.40;36.15;;;;;;;-2.42;79.16;100985.11;1626592;87;25308;-80
2021/12/23 08:43:00;;;;;;;84.52;38.33;;;;;;;-2.41;79.02;100973.70;1657062;86;27521;-81
2021/12/23 08:45:28;;;;;;;85.55;36.65;;;;;;;-2.37;79.19;100974.34;1649827;86;26585;-80
2021/12/23 08:47:56;;;;;;;86.35;39.03;;;;;;;-2.41;79.03;100954.48;1652068;85;25757;-80
2021/12/23 08:50:26;;;;;;;85.35;39.90;;;;;;;-2.33;79.01;100965.34;1635750;86;26588;-80
2021/12/23 08:52:53;;;;;;;87.42;39.03;;;;;;;-2.29;79.08;100964.70;1584943;87;25876;-81
2021/12/23 08:55:21;;;;;;;82.22;36.75;;;;;;;-2.25;78.99;100953.06;1607828;88;28270;-80
2021/12/23 08:57:48;;;;;;;80.50;36.15;;;;;;;-2.22;79.16;100946.33;1605839;87;25892;-81
2021/12/23 09:00:19;;;;;;;86.50;36.60;;;;;;;-2.17;79.09;100943.77;1619528;87;25764;-81
2021/12/23 09:02:48;;;;;;;84.17;37.70;;;;;;;-2.15;78.80;100946.28;1640533;87;25893;-81
2021/12/23 09:05:14;;;;;;;83.20;39.88;;;;;;;-2.12;78.65;100947.41;1654864;86;25929;-80
2021/12/23 09:07:41;;;;;;;82.75;37.42;;;;;;;-2.09;78.71;100943.27;1637374;86;27453;-81
2021/12/23 09:10:09;;;;;;;87.10;38.75;;;;;;;-2.07;78.56;100936.98;1643879;86;25917;-80
2021/12/23 09:12:36;;;;;;;82.57;37.90;;;;;;;-2.05;78.55;100933.79;1653461;85;25890;-83
2021/12/23 09:15:04;;;;;;;82.40;40.50;;;;;;;-2.02;78.45;100924.42;1655251;86;26479;-83
2021/12/23 09:17:31;;;;;;;82.35;38.78;;;;;;;-1.97;78.67;100922.34;1663316;86;25836;-84
2021/12/23 09:19:58;;;;;;;80.30;37.33;;;;;;;-1.92;78.48;100920.71;1646349;86;27684;-83
2021/12/23 09:22:24;;;;;;;81.42;37.67;;;;;;;-1.89;78.44;100912.19;1657794;85;25971;-83
2021/12/23 09:24:55;;;;;;;78.22;39.15;;;;;;;-1.85;78.35;100912.34;1616419;87;26214;-83
2021/12/23 09:27:28;;;;;;;88.90;38.65;;;;;;;-1.80;78.22;100915.52;1629344;87;25969;-83
2021/12/23 09:35:02;;;;;;;83.12;37.20;;;;;;;-1.64;78.31;100916.19;1647549;86;25819;-81
2021/12/23 09:37:29;;;;;;;76.62;36.68;;;;;;;-1.58;78.23;100916.23;1655281;86;25787;-82
2021/12/23 09:39:58;;;;;;;74.70;33.73;;;;;;;-1.55;77.84;100906.85;1646755;86;25756;-81
2021/12/23 09:42:33;;;;;;;75.97;34.38;;;;;;;-1.58;77.32;100910.52;1664414;86;25793;-81
2021/12/23 09:45:07;;;;;;;72.70;32.50;;;;;;;-1.58;76.96;100910.98;1603461;89;27320;-80
2021/12/23 09:47:35;;;;;;;82.25;37.23;;;;;;;-1.59;77.02;100906.22;1630525;86;26008;-81
2021/12/23 09:50:06;;;;;;;75.75;35.43;;;;;;;-1.55;77.34;100898.97;1616427;87;25982;-81
2021/12/23 09:52:35;;;;;;;73.42;33.78;;;;;;;-1.52;76.88;100901.41;1576795;90;26651;-81
2021/12/23 09:55:05;;;;;;;77.80;35.75;;;;;;;-1.56;77.18;100894.64;1583777;89;26707;-81
2021/12/23 09:57:31;;;;;;;70.77;32.10;;;;;;;-1.50;76.88;100898.66;1630560;87;27460;-81
2021/12/23 09:59:59;;;;;;;72.10;34.63;;;;;;;-1.52;76.52;100892.21;1645022;86;26060;-81
2021/12/23 10:02:25;;;;;;;80.77;37.20;;;;;;;-1.52;76.73;100892.21;1655446;86;25897;-81
2021/12/23 10:04:51;;;;;;;75.15;34.63;;;;;;;-1.51;76.81;100884.69;1632941;85;25767;-81
2021/12/23 10:07:18;;;;;;;75.62;35.30;;;;;;;-1.47;76.78;100884.00;1619640;88;25896;-81
2021/12/23 10:10:10;;;;;;;77.80;35.50;;;;;;;-1.45;76.91;100879.02;1642258;86;27428;-81
2021/12/23 10:30:10;;;;;;;81.00;35.98;;;;;;;-1.30;76.31;100828.52;1641912;86;25308;-81
2021/12/23 10:31:44;;;;;;;71.85;34.08;;;;;;;-1.27;76.50;100814.70;1645662;86;26506;-81
2021/12/23 10:37:17;;;;;;;79.55;31.55;;;;;;;-1.21;76.37;100802.45;1661583;86;27573;-81
2021/12/23 10:39:48;;;;;;;79.47;35.92;;;;;;;-1.20;76.28;100794.95;1657636;85;25326;-81
2021/12/23 10:42:25;;;;;;;80.25;35.17;;;;;;;-1.16;76.40;100788.52;1645653;87;25400;-81
2021/12/23 10:45:02;;;;;;;85.57;35.70;;;;;;;-1.10;76.56;100774.95;1605748;87;26489;-80
2021/12/23 10:47:46;;;;;;;76.25;35.10;;;;;;;-1.05;76.45;100766.23;1661138;86;25995;-81
2021/12/23 10:50:39;;;;;;;73.47;34.50;;;;;;;-1.00;76.33;100760.19;1624600;86;27469;-81
2021/12/23 10:53:30;;;;;;;66.57;32.90;;;;;;;-0.95;76.35;100750.66;1649265;85;25356;-82
2021/12/23 10:58:28;;;;;;;69.90;32.55;;;;;;;-0.89;75.95;100733.97;1653798;86;26640;-81
2021/12/23 11:01:00;;;;;;;73.33;33.35;;;;;;;;;;1660390;86;25783;-81
2021/12/23 11:03:33;;;;;;;67.75;32.93;;;;;;;-0.84;76.00;100721.81;1626782;86;27539;-81
2021/12/23 11:06:20;;;;;;;76.42;35.85;;;;;;;-0.79;76.03;100718.35;1646627;86;25537;-81
2021/12/23 11:08:53;;;;;;;73.55;32.40;;;;;;;-0.76;76.05;100707.63;1630943;87;25950;-82
2021/12/23 11:32:07;;;;;;;72.50;35.80;;;;;;;-0.49;75.75;100656.09;1588333;86;27707;-81
2021/12/23 11:43:57;;;;;;;66.70;32.90;;;;;;;-0.38;75.66;100611.36;1607888;88;28419;-81
2021/12/23 11:46:35;;;;;;;66.67;30.55;;;;;;;-0.35;75.61;100602.77;1647733;86;25801;-81
2021/12/23 11:49:06;;;;;;;68.10;33.25;;;;;;;-0.33;75.26;100596.06;1632726;86;25827;-81
2021/12/23 11:54:20;;;;;;;61.28;29.98;;;;;;;-0.34;75.16;100580.75;1663828;86;25742;-81
2021/12/23 11:56:51;;;;;;;62.33;29.52;;;;;;;-0.33;75.03;100571.91;1648809;86;26894;-81
2021/12/23 11:59:19;;;;;;;67.27;32.25;;;;;;;-0.30;75.06;100569.53;1635385;86;25950;-81
2021/12/23 12:01:50;;;;;;;57.27;28.23;;;;;;;-0.30;74.94;100559.00;1657949;85;25657;-82
2021/12/23 12:04:32;;;;;;;59.83;28.55;;;;;;;-0.29;74.82;100555.40;1658001;86;26655;-81
2021/12/23 12:06:59;;;;;;;62.40;29.55;;;;;;;-0.28;74.83;100549.19;1657958;85;25903;-82
2021/12/23 12:09:32;;;;;;;55.43;26.50;;;;;;;-0.28;74.71;100538.66;1657886;86;27466;-81
2021/12/23 12:12:06;;;;;;;54.90;27.95;;;;;;;-0.26;74.72;100538.06;1657554;85;25815;-81
2021/12/23 12:14:43;;;;;;;51.75;24.87;;;;;;;-0.25;74.82;100531.83;1648732;86;25878;-82
2021/12/23 12:17:33;;;;;;;59.73;28.73;;;;;;;-0.26;74.46;100527.06;1608343;89;25965;-82
2021/12/23 12:20:23;;;;;;;61.65;27.50;;;;;;;-0.25;74.49;100527.41;1646280;87;25906;-81